createdAt,value
2023-02-16T00:01:55.969Z,99.90
2023-02-16T00:04:31.865Z,99.90
2023-02-16T00:06:58.630Z,99.90
2023-02-16T00:09:25.637Z,99.90
2023-02-16T00:12:14.756Z,99.90
2023-02-16T00:14:41.668Z,99.90
2023-02-16T00:17:11.283Z,99.90
2023-02-16T00:19:39.879Z,99.90
2023-02-16T00:22:07.796Z,99.90
2023-02-16T00:24:34.953Z,99.90
2023-02-16T00:27:02.088Z,99.90
2023-02-16T00:29:36.248Z,99.90
2023-02-16T00:32:05.734Z,99.90
2023-02-16T00:34:32.539Z,99.90
2023-02-16T00:37:01.221Z,99.90
2023-02-16T00:39:28.641Z,99.90
2023-02-16T00:41:58.912Z,99.90
2023-02-16T00:44:47.115Z,99.90
2023-02-16T00:47:34.735Z,99.90
2023-02-16T00:50:01.621Z,99.90
2023-02-16T00:52:33.110Z,99.90
2023-02-16T00:55:01.469Z,99.90
2023-02-16T00:57:32.199Z,99.90
2023-02-16T01:00:07.773Z,99.90
2023-02-16T01:05:01.698Z,99.90
2023-02-16T01:07:47.288Z,99.90
2023-02-16T01:10:32.730Z,99.90
2023-02-16T01:13:00.530Z,99.90
2023-02-16T01:15:27.496Z,99.90
2023-02-16T01:17:54.342Z,99.90
2023-02-16T01:20:23.751Z,99.90
2023-02-16T01:22:50.826Z,99.90
2023-02-16T01:25:17.929Z,99.90
2023-02-16T01:27:45.176Z,99.90
2023-02-16T01:30:15.535Z,99.90
2023-02-16T01:35:10.466Z,99.90
2023-02-16T01:37:37.170Z,99.90
2023-02-16T01:40:04.435Z,99.90
2023-02-16T01:42:52.016Z,99.90
2023-02-16T01:45:26.627Z,99.90
2023-02-16T01:48:02.436Z,99.90
2023-02-16T01:50:42.706Z,99.90
2023-02-16T01:53:28.674Z,99.90
2023-02-16T01:56:01.704Z,99.90
2023-02-16T01:58:47.117Z,99.90
2023-02-16T02:01:41.031Z,99.90
2023-02-16T02:04:47.017Z,99.90
2023-02-16T02:07:36.713Z,99.90
2023-02-16T02:10:24.040Z,99.90
2023-02-16T02:12:54.274Z,99.90
2023-02-16T02:15:25.800Z,99.90
2023-02-16T02:17:52.562Z,99.90
2023-02-16T02:20:45.045Z,99.90
2023-02-16T02:23:33.099Z,99.90
2023-02-16T02:26:19.288Z,99.90
2023-02-16T02:28:51.718Z,99.90
2023-02-16T02:31:18.498Z,99.90
2023-02-16T02:33:45.255Z,99.90
2023-02-16T02:36:26.204Z,99.90
2023-02-16T02:39:09.088Z,99.90
2023-02-16T02:41:57.314Z,99.90
2023-02-16T02:44:27.111Z,99.90
2023-02-16T02:46:53.858Z,99.90
2023-02-16T02:49:20.839Z,99.90
2023-02-16T02:51:48.373Z,99.90
2023-02-16T02:55:09.021Z,99.90
2023-02-16T02:58:03.511Z,99.90
2023-02-16T03:00:41.184Z,99.90
2023-02-16T03:03:27.732Z,99.90
2023-02-16T03:06:03.154Z,99.90
2023-02-16T03:08:33.578Z,99.90
2023-02-16T03:11:26.753Z,99.90
2023-02-16T03:14:02.207Z,99.90
2023-02-16T03:16:37.666Z,99.90
2023-02-16T03:19:27.046Z,99.90
2023-02-16T03:22:14.044Z,99.90
2023-02-16T03:24:59.936Z,99.90
2023-02-16T03:27:49.525Z,99.90
2023-02-16T03:30:18.098Z,99.90
2023-02-16T03:32:46.107Z,99.90
2023-02-16T03:35:13.100Z,99.90
2023-02-16T03:37:44.820Z,99.90
2023-02-16T03:40:30.024Z,99.90
2023-02-16T03:43:00.136Z,99.90
2023-02-16T03:45:28.180Z,99.90
2023-02-16T03:47:55.248Z,99.90
2023-02-16T03:50:22.135Z,99.90
2023-02-16T03:52:49.488Z,99.90
2023-02-16T03:55:16.476Z,99.90
2023-02-16T03:57:43.286Z,99.90
2023-02-16T04:00:10.648Z,99.90
2023-02-16T04:02:37.408Z,99.90
2023-02-16T04:05:04.246Z,99.90
2023-02-16T04:12:37.765Z,99.90
2023-02-16T04:15:06.899Z,99.90
2023-02-16T04:17:33.696Z,99.90
2023-02-16T04:20:00.462Z,99.90
2023-02-16T04:22:27.444Z,99.90
2023-02-16T04:24:54.267Z,99.90
2023-02-16T04:29:48.249Z,99.90
2023-02-16T04:32:14.981Z,99.90
2023-02-16T04:37:09.132Z,99.90
2023-02-16T04:39:35.863Z,99.90
2023-02-16T04:42:03.000Z,99.90
2023-02-16T04:44:30.296Z,99.90
2023-02-16T04:46:57.318Z,99.90
2023-02-16T04:49:24.087Z,99.90
2023-02-16T04:51:50.767Z,99.90
2023-02-16T04:54:18.011Z,99.90
2023-02-16T04:56:48.347Z,99.90
2023-02-16T04:59:16.278Z,99.90
2023-02-16T05:01:43.549Z,99.90
2023-02-16T05:04:10.710Z,99.90
2023-02-16T05:06:38.806Z,99.90
2023-02-16T05:09:06.569Z,99.90
2023-02-16T05:14:45.439Z,99.90
2023-02-16T05:17:15.325Z,99.90
2023-02-16T05:19:43.524Z,99.90
2023-02-16T05:22:10.935Z,99.90
2023-02-16T05:24:38.093Z,99.90
2023-02-16T05:27:07.320Z,99.90
2023-02-16T05:29:34.487Z,99.90
2023-02-16T05:32:04.392Z,99.90
2023-02-16T05:34:32.114Z,99.90
2023-02-16T05:36:58.928Z,99.90
2023-02-16T05:39:25.587Z,99.90
2023-02-16T05:41:52.356Z,99.90
2023-02-16T05:44:19.162Z,99.90
2023-02-16T05:46:46.586Z,99.90
2023-02-16T05:49:14.469Z,99.90
2023-02-16T05:51:41.579Z,99.90
2023-02-16T05:54:10.683Z,99.90
2023-02-16T05:56:37.532Z,99.90
2023-02-16T05:59:04.338Z,99.90
2023-02-16T06:01:31.043Z,99.90
2023-02-16T06:03:57.876Z,99.90
2023-02-16T06:06:24.622Z,99.90
2023-02-16T06:08:51.742Z,99.90
2023-02-16T06:11:36.551Z,99.90
2023-02-16T06:14:15.182Z,99.90
2023-02-16T06:16:44.443Z,99.90
2023-02-16T06:19:12.047Z,99.90
2023-02-16T06:21:39.810Z,99.90
2023-02-16T06:24:08.099Z,99.90
2023-02-16T06:26:36.219Z,99.90
2023-02-16T06:33:57.806Z,99.90
2023-02-16T06:36:25.068Z,99.90
2023-02-16T06:38:52.564Z,99.90
2023-02-16T06:41:31.817Z,99.90
2023-02-16T06:44:07.077Z,99.90
2023-02-16T06:46:34.028Z,99.90
2023-02-16T06:49:01.498Z,99.90
2023-02-16T06:51:28.590Z,99.90
2023-02-16T06:53:55.912Z,99.90
2023-02-16T06:56:23.648Z,99.90
2023-02-16T06:58:50.991Z,99.90
2023-02-16T07:01:23.411Z,99.90
2023-02-16T07:03:52.189Z,99.90
2023-02-16T07:06:20.007Z,99.90
2023-02-16T07:08:46.733Z,99.90
2023-02-16T07:11:14.531Z,99.90
2023-02-16T07:13:41.330Z,99.90
2023-02-16T07:16:08.168Z,99.90
2023-02-16T07:18:35.258Z,99.90
2023-02-16T07:21:02.753Z,99.90
2023-02-16T07:23:29.645Z,99.90
2023-02-16T07:25:56.413Z,99.90
2023-02-16T07:28:23.128Z,99.90
2023-02-16T07:30:50.780Z,99.90
2023-02-16T07:33:18.628Z,99.90
2023-02-16T07:35:45.365Z,99.80
2023-02-16T07:38:12.607Z,98.40
2023-02-16T07:40:39.314Z,97.10
2023-02-16T07:43:06.524Z,96.00
2023-02-16T07:45:34.019Z,94.80
2023-02-16T07:48:02.097Z,94.00
2023-02-16T07:50:28.822Z,93.30
2023-02-16T07:52:55.532Z,92.80
2023-02-16T07:55:22.249Z,92.90
2023-02-16T07:57:49.527Z,93.60
2023-02-16T08:00:16.772Z,94.70
2023-02-16T08:02:43.557Z,96.00
2023-02-16T08:05:10.519Z,96.70
2023-02-16T08:07:37.377Z,97.40
2023-02-16T08:12:32.727Z,98.10
2023-02-16T08:14:59.664Z,98.40
2023-02-16T08:17:26.489Z,98.20
2023-02-16T08:19:53.247Z,98.60
2023-02-16T08:22:19.958Z,98.90
2023-02-16T08:24:46.699Z,98.70
2023-02-16T08:27:13.593Z,98.50
2023-02-16T08:29:41.598Z,98.60
2023-02-16T08:32:14.557Z,98.70
2023-02-16T08:34:43.322Z,98.90
2023-02-16T08:37:12.365Z,98.90
2023-02-16T08:39:40.083Z,98.70
2023-02-16T08:42:06.899Z,98.80
2023-02-16T08:44:34.124Z,98.80
2023-02-16T08:47:01.262Z,98.80
2023-02-16T08:49:28.320Z,98.90
2023-02-16T08:51:57.502Z,99.50
2023-02-16T08:54:28.969Z,99.50
2023-02-16T08:56:57.393Z,99.20
2023-02-16T08:59:28.219Z,99.70
2023-02-16T09:01:55.908Z,99.50
2023-02-16T09:04:24.493Z,99.60
2023-02-16T09:06:52.409Z,99.50
2023-02-16T09:09:20.053Z,99.60
2023-02-16T09:11:47.528Z,99.60
2023-02-16T09:14:17.142Z,99.90
2023-02-16T09:16:45.855Z,99.90
2023-02-16T09:19:18.946Z,99.60
2023-02-16T09:21:47.505Z,99.30
2023-02-16T09:24:15.936Z,98.60
2023-02-16T09:26:43.023Z,98.90
2023-02-16T09:29:10.939Z,98.50
2023-02-16T09:31:39.464Z,98.40
2023-02-16T09:34:18.199Z,98.00
2023-02-16T09:36:45.580Z,97.50
2023-02-16T09:39:12.381Z,97.40
2023-02-16T09:41:41.918Z,97.30
2023-02-16T09:44:29.495Z,96.90
2023-02-16T09:46:58.764Z,96.40
2023-02-16T09:49:28.332Z,96.60
2023-02-16T09:52:21.243Z,96.30
2023-02-16T09:54:59.918Z,96.40
2023-02-16T09:58:14.839Z,96.40
2023-02-16T10:00:51.122Z,96.80
2023-02-16T10:03:37.172Z,96.90
2023-02-16T10:06:10.691Z,97.70
2023-02-16T10:08:50.188Z,97.60
2023-02-16T10:11:38.026Z,97.90
2023-02-16T10:14:30.829Z,98.20
2023-02-16T10:17:02.170Z,98.50
2023-02-16T10:19:35.374Z,98.50
2023-02-16T10:22:06.881Z,98.60
2023-02-16T10:24:45.034Z,98.60
2023-02-16T10:27:15.824Z,98.70
2023-02-16T10:29:42.796Z,98.80
2023-02-16T10:32:24.848Z,98.80
2023-02-16T10:35:11.210Z,99.10
2023-02-16T10:38:20.036Z,99.20
2023-02-16T10:40:53.002Z,99.50
2023-02-16T10:43:42.498Z,99.70
2023-02-16T10:46:12.660Z,99.80
2023-02-16T10:48:39.428Z,99.90
2023-02-16T10:51:10.576Z,99.90
2023-02-16T10:53:52.881Z,99.70
2023-02-16T10:56:45.393Z,99.60
2023-02-16T10:59:18.614Z,99.40
2023-02-16T11:01:59.515Z,99.30
2023-02-16T11:04:38.403Z,98.90
2023-02-16T11:07:12.808Z,98.70
2023-02-16T11:09:41.105Z,98.10
2023-02-16T11:12:15.993Z,97.40
2023-02-16T11:14:50.156Z,97.00
2023-02-16T11:17:18.509Z,96.70
2023-02-16T11:20:01.638Z,96.30
2023-02-16T11:22:33.274Z,96.40
2023-02-16T11:25:18.249Z,95.90
2023-02-16T11:27:52.731Z,95.20
2023-02-16T11:30:29.383Z,95.30
2023-02-16T11:32:56.633Z,94.30
2023-02-16T11:35:23.428Z,94.40
2023-02-16T11:37:51.040Z,94.40
2023-02-16T11:40:23.062Z,94.10
2023-02-16T11:42:56.102Z,94.20
2023-02-16T11:45:30.266Z,93.80
2023-02-16T11:48:02.701Z,93.70
2023-02-16T11:50:32.516Z,93.70
2023-02-16T11:53:11.554Z,93.80
2023-02-16T11:55:44.986Z,93.60
2023-02-16T11:58:27.762Z,93.50
2023-02-16T12:01:03.861Z,93.60
2023-02-16T12:03:39.920Z,93.30
2023-02-16T12:06:25.773Z,93.10
2023-02-16T12:09:02.829Z,93.40
2023-02-16T12:12:07.896Z,93.40
2023-02-16T12:14:36.443Z,93.20
2023-02-16T12:17:28.010Z,92.70
2023-02-16T12:20:11.425Z,92.90
2023-02-16T12:25:13.108Z,92.60
2023-02-16T12:27:50.963Z,92.90
2023-02-16T12:30:31.537Z,92.90
2023-02-16T12:33:29.550Z,92.70
2023-02-16T12:36:08.198Z,92.50
2023-02-16T12:39:02.135Z,92.90
2023-02-16T12:41:50.992Z,92.50
2023-02-16T12:44:46.028Z,92.90
2023-02-16T12:47:29.885Z,92.60
2023-02-16T12:50:01.525Z,92.60
2023-02-16T12:52:40.352Z,92.70
2023-02-16T12:55:22.067Z,92.80
2023-02-16T12:58:24.096Z,92.80
2023-02-16T13:01:01.663Z,92.90
2023-02-16T13:03:47.959Z,93.00
2023-02-16T13:06:37.497Z,92.70
2023-02-16T13:09:33.972Z,93.20
2023-02-16T13:12:41.710Z,93.30
2023-02-16T13:15:16.164Z,93.90
2023-02-16T13:18:03.069Z,93.80
2023-02-16T13:20:29.980Z,93.90
2023-02-16T13:23:32.894Z,94.20
2023-02-16T13:26:24.191Z,94.20
2023-02-16T13:29:10.783Z,94.40
2023-02-16T13:32:03.586Z,94.90
2023-02-16T13:35:07.943Z,95.50
2023-02-16T13:37:59.132Z,95.80
2023-02-16T13:40:32.054Z,95.40
2023-02-16T13:43:17.363Z,95.50
2023-02-16T13:45:47.519Z,95.60
2023-02-16T13:48:38.433Z,95.80
2023-02-16T13:51:13.828Z,95.60
2023-02-16T13:53:43.597Z,95.50
2023-02-16T13:56:23.250Z,95.20
2023-02-16T13:58:52.110Z,95.30
2023-02-16T14:01:44.051Z,95.50
2023-02-16T14:04:34.438Z,95.70
2023-02-16T14:07:01.368Z,95.30
2023-02-16T14:09:47.797Z,95.10
2023-02-16T14:12:36.106Z,94.80
2023-02-16T14:15:18.439Z,95.20
2023-02-16T14:17:47.209Z,94.90
2023-02-16T14:20:13.922Z,94.70
2023-02-16T14:22:43.711Z,94.60
2023-02-16T14:25:22.480Z,94.40
2023-02-16T14:27:54.888Z,94.10
2023-02-16T14:30:42.787Z,94.70
2023-02-16T14:33:12.398Z,94.40
2023-02-16T14:35:42.902Z,94.20
2023-02-16T14:38:34.454Z,94.50
2023-02-16T14:41:03.696Z,94.70
2023-02-16T14:43:41.283Z,95.00
2023-02-16T14:46:26.959Z,94.90
2023-02-16T14:48:56.741Z,95.10
2023-02-16T14:51:49.847Z,95.50
2023-02-16T14:54:41.316Z,95.70
2023-02-16T14:57:18.604Z,96.00
2023-02-16T14:59:48.499Z,96.30
2023-02-16T15:02:24.249Z,96.20
2023-02-16T15:04:51.020Z,96.20
2023-02-16T15:07:18.665Z,96.30
2023-02-16T15:09:47.584Z,96.50
2023-02-16T15:12:24.153Z,96.60
2023-02-16T15:14:58.741Z,96.70
2023-02-16T15:17:45.219Z,96.70
2023-02-16T15:20:29.464Z,97.10
2023-02-16T15:23:02.516Z,97.20
2023-02-16T15:25:29.413Z,97.30
2023-02-16T15:28:15.760Z,97.40
2023-02-16T15:30:49.413Z,97.50
2023-02-16T15:33:25.090Z,97.60
2023-02-16T15:35:53.545Z,97.90
2023-02-16T15:38:25.946Z,98.00
2023-02-16T15:40:56.192Z,98.30
2023-02-16T15:43:32.028Z,98.50
2023-02-16T15:46:01.067Z,98.70
2023-02-16T15:48:30.708Z,98.90
2023-02-16T15:51:07.363Z,98.90
2023-02-16T15:53:36.916Z,99.20
2023-02-16T15:56:12.603Z,99.30
2023-02-16T15:58:39.354Z,99.50
2023-02-16T16:01:06.298Z,99.90
2023-02-16T16:03:33.443Z,99.90
2023-02-16T16:06:06.015Z,99.90
2023-02-16T16:08:33.179Z,99.90
2023-02-16T16:11:00.380Z,99.90
2023-02-16T16:13:29.759Z,99.90
2023-02-16T16:16:01.825Z,99.90
2023-02-16T16:18:45.245Z,99.90
2023-02-16T16:21:24.489Z,99.90
2023-02-16T16:24:32.557Z,99.90
2023-02-16T16:27:02.428Z,99.90
2023-02-16T16:29:29.958Z,99.90
2023-02-16T16:31:56.893Z,99.90
2023-02-16T16:34:39.599Z,99.90
2023-02-16T16:37:26.841Z,99.90
2023-02-16T16:40:01.482Z,99.90
2023-02-16T16:42:28.855Z,99.90
2023-02-16T16:44:57.598Z,99.90
2023-02-16T16:47:33.475Z,99.90
2023-02-16T16:50:15.095Z,99.90
2023-02-16T16:52:44.625Z,99.90
2023-02-16T16:55:21.304Z,99.90
2023-02-16T16:57:49.877Z,99.90
2023-02-16T17:00:17.915Z,99.90
2023-02-16T17:02:45.020Z,99.90
2023-02-16T17:05:12.096Z,99.90
2023-02-16T17:07:39.122Z,99.90
2023-02-16T17:10:06.556Z,99.90
2023-02-16T17:12:33.499Z,99.90
2023-02-16T17:15:01.851Z,99.90
2023-02-16T17:17:28.661Z,99.90
2023-02-16T17:19:55.412Z,99.90
2023-02-16T17:22:22.196Z,99.90
2023-02-16T17:24:49.110Z,99.90
2023-02-16T17:27:15.939Z,99.90
2023-02-16T17:29:44.720Z,99.90
2023-02-16T17:32:11.498Z,99.90
2023-02-16T17:34:38.396Z,99.90
2023-02-16T17:37:09.445Z,99.90
2023-02-16T17:39:36.435Z,99.90
2023-02-16T17:42:03.460Z,99.90
2023-02-16T17:46:57.443Z,99.90
2023-02-16T17:49:24.287Z,99.90
2023-02-16T17:51:51.036Z,99.90
2023-02-16T17:54:17.746Z,99.90
2023-02-16T17:56:46.495Z,99.90
2023-02-16T17:59:17.472Z,99.90
2023-02-16T18:01:45.054Z,99.90
2023-02-16T18:04:11.884Z,99.90
2023-02-16T18:06:38.619Z,99.90
2023-02-16T18:09:05.440Z,99.90
2023-02-16T18:11:32.215Z,99.90
2023-02-16T18:13:59.066Z,99.90
2023-02-16T18:16:27.329Z,99.90
2023-02-16T18:18:54.787Z,99.90
2023-02-16T18:21:21.551Z,99.90
2023-02-16T18:23:48.336Z,99.90
2023-02-16T18:26:16.833Z,99.90
2023-02-16T18:28:44.039Z,99.90
2023-02-16T18:31:12.002Z,99.90
2023-02-16T18:33:38.884Z,99.90
2023-02-16T18:36:06.578Z,99.90
2023-02-16T18:38:34.625Z,99.90
2023-02-16T18:41:01.394Z,99.90
2023-02-16T18:43:28.178Z,99.90
2023-02-16T18:45:55.011Z,99.90
2023-02-16T18:48:21.864Z,99.90
2023-02-16T18:50:48.743Z,99.90
2023-02-16T18:53:15.500Z,99.90
2023-02-16T18:55:42.302Z,99.90
2023-02-16T18:58:13.330Z,99.90
2023-02-16T19:00:40.843Z,99.90
2023-02-16T19:03:07.722Z,99.90
2023-02-16T19:05:34.735Z,99.90
2023-02-16T19:08:01.490Z,99.90
2023-02-16T19:10:28.260Z,99.90
2023-02-16T19:12:55.006Z,99.90
2023-02-16T19:15:21.799Z,99.90
2023-02-16T19:17:48.778Z,99.90
2023-02-16T19:20:18.286Z,99.90
2023-02-16T19:22:46.836Z,99.90
2023-02-16T19:25:14.577Z,99.90
2023-02-16T19:27:41.629Z,99.90
2023-02-16T19:30:09.502Z,99.90
2023-02-16T19:32:36.650Z,99.90
2023-02-16T19:35:03.738Z,99.90
2023-02-16T19:37:30.525Z,99.90
2023-02-16T19:42:24.578Z,99.90
2023-02-16T19:44:51.562Z,99.90
2023-02-16T19:47:18.421Z,99.90
2023-02-16T19:49:45.670Z,99.90
2023-02-16T19:52:12.540Z,99.90
2023-02-16T19:54:39.573Z,99.90
2023-02-16T19:57:06.520Z,99.90
2023-02-16T19:59:34.251Z,99.90
2023-02-16T20:02:01.304Z,99.90
2023-02-16T20:04:28.192Z,99.90
2023-02-16T20:06:56.441Z,99.90
2023-02-16T20:09:24.148Z,99.90
2023-02-16T20:11:51.475Z,99.90
2023-02-16T20:14:18.205Z,99.90
2023-02-16T20:16:45.061Z,99.90
2023-02-16T20:19:12.206Z,99.90
2023-02-16T20:21:40.832Z,99.90
2023-02-16T20:24:07.674Z,99.90
2023-02-16T20:26:37.846Z,99.90
2023-02-16T20:29:07.034Z,99.90
2023-02-16T20:31:38.050Z,99.90
2023-02-16T20:34:06.226Z,99.90
2023-02-16T20:36:33.042Z,99.90
2023-02-16T20:38:59.845Z,99.90
2023-02-16T20:41:26.872Z,99.90
2023-02-16T20:43:53.803Z,99.90
2023-02-16T20:46:23.533Z,99.90
2023-02-16T20:48:50.696Z,99.90
2023-02-16T20:51:18.605Z,99.90
2023-02-16T20:53:45.754Z,99.90
2023-02-16T20:56:20.677Z,99.90
2023-02-16T20:58:50.444Z,99.90
2023-02-16T21:01:27.756Z,99.90
2023-02-16T21:03:55.780Z,99.90
2023-02-16T21:06:23.334Z,99.90
2023-02-16T21:08:50.577Z,99.90
2023-02-16T21:11:17.662Z,99.90
2023-02-16T21:13:44.701Z,99.90
2023-02-16T21:16:12.352Z,99.90
2023-02-16T21:18:40.573Z,99.90
2023-02-16T21:21:09.067Z,99.90
2023-02-16T21:23:36.325Z,99.90
2023-02-16T21:26:05.649Z,99.90
2023-02-16T21:28:33.111Z,99.90
2023-02-16T21:31:15.997Z,99.90
2023-02-16T21:33:43.425Z,99.90
2023-02-16T21:36:16.263Z,99.90
2023-02-16T21:38:43.850Z,99.90
2023-02-16T21:41:26.404Z,99.90
2023-02-16T21:44:00.612Z,99.90
2023-02-16T21:46:39.091Z,99.90
2023-02-16T21:49:07.793Z,99.90
2023-02-16T21:51:37.069Z,99.90
2023-02-16T21:54:07.002Z,99.90
2023-02-16T21:56:51.368Z,99.90
2023-02-16T21:59:19.733Z,99.90
2023-02-16T22:01:50.994Z,99.90
2023-02-16T22:04:21.462Z,99.90
2023-02-16T22:06:49.904Z,99.90
2023-02-16T22:09:21.946Z,99.90
2023-02-16T22:11:49.189Z,99.90
2023-02-16T22:14:16.314Z,99.90
2023-02-16T22:16:45.146Z,99.90
2023-02-16T22:19:13.335Z,99.90
2023-02-16T22:21:42.714Z,99.90
2023-02-16T22:24:13.305Z,99.90
2023-02-16T22:26:40.318Z,99.90
2023-02-16T22:29:08.186Z,99.90
2023-02-16T22:31:35.679Z,99.90
2023-02-16T22:34:05.139Z,99.90
2023-02-16T22:36:32.589Z,99.90
2023-02-16T22:38:59.629Z,99.90
2023-02-16T22:41:26.527Z,99.90
2023-02-16T22:43:54.927Z,99.90
2023-02-16T22:46:23.741Z,99.90
2023-02-16T22:48:50.850Z,99.90
2023-02-16T22:51:18.678Z,99.90
2023-02-16T22:53:45.755Z,99.90
2023-02-16T22:56:15.129Z,99.90
2023-02-16T22:58:41.937Z,99.90
2023-02-16T23:01:13.947Z,99.90
2023-02-16T23:03:41.257Z,99.90
2023-02-16T23:06:13.460Z,99.90
2023-02-16T23:08:40.466Z,99.90
2023-02-16T23:11:07.300Z,99.90
2023-02-16T23:13:35.095Z,99.90
2023-02-16T23:16:10.707Z,99.90
2023-02-16T23:18:38.096Z,99.90
2023-02-16T23:21:33.058Z,99.90
2023-02-16T23:24:00.540Z,99.90
2023-02-16T23:26:29.096Z,99.90
2023-02-16T23:28:57.961Z,99.90
2023-02-16T23:31:24.886Z,99.90
2023-02-16T23:33:52.373Z,99.90
2023-02-16T23:36:19.118Z,99.90
2023-02-16T23:38:45.881Z,99.90
2023-02-16T23:41:14.382Z,99.90
2023-02-16T23:43:41.397Z,99.90
2023-02-16T23:46:08.689Z,99.90
2023-02-16T23:48:36.211Z,99.90
2023-02-16T23:51:02.959Z,99.90
2023-02-16T23:53:29.715Z,99.90
2023-02-16T23:56:06.216Z,99.90
2023-02-16T23:58:41.336Z,99.90
